Orange Grove, Mississippi
Current Conditions -  °F | °C
As of 10:53 AM on Thursday 30 Oct 2014 (Local Time) from KGPT Reporting Station
Clear Clear  
Wind Chill: 69°   Ceiling: Unl
Heat Index: 69°   Visibility: 10mi
Dew Point: 44°   Wind: 10mph
Humidity: 40%   Direction: 30°NNE
Pressure: 30.11"   Gusts: 21mph
Location:  30.45°N, 89.08°W
Report Text: KGPT 301553Z 03009G18KT 10SM CLR 21/07 A3011 RMK AO2 SLP195 T02060067 $
Loading
Personal Weather Stations






























Interactive Weather Map
Tropical Storm Tracking
New forecast layout! Learn more

10-Day Weather Forecast

Advertisements
Track Severe Weather on mobile